Tiempo atmosférico en la estación meteorológica de Barco De Avila, Ávila (1012 m.)



Fecha
DESCASC
Temp. máxima en grados centígrados (hora)
DESCASC
Temp. mínima en grados centígrados (hora)
DESCASC
Temp. media en grados centígrados
DESCASC
Racha de viento máxima en m/sg (hora)
DESCASC
Velocidad máxima media en intervalos de 10 minutos(hora)
DESCASC
Precipitaciones diarias en mm
DESCASC
Precipitaciones de 00:00 a 06:00 en mm
DESCASC
Precipitaciones de 06:00 a 12:00 en mm
DESCASC
Precipitaciones de 12:00 a 18:00 en mm
DESCASC
Precipitaciones de 18:00 a 24:00 en mm
DESCASC
06-12-2018 16.2 (15:40) -1 (09:00) 7.6 4.72 (06:10) 3.61 (06:10) -- -- -- -- --
05-12-2018 18.8 (16:20) -0.4 (07:20) 9.2 7.5 (12:30) 4.17 (12:30) -- -- -- -- --
04-12-2018 19.5 (15:40) -0.1 (08:00) 9.7 8.89 (14:50) 6.11 (14:50) -- -- -- -- --
03-12-2018 15.7 (15:30) -0.8 (-00:0) 7.4 5.56 (14:00) 3.89 (10:30) -- -- -- -- --
02-12-2018 15.2 (15:00) 0.2 (00:00) 7.7 6.11 (14:10) 3.33 (13:30) -- -- -- -- --
01-12-2018 11.8 (15:20) -2.6 (-00:0) 4.6 6.39 (15:30) 3.33 (15:10) -- -- -- -- --
30-11-2018 8.6 (14:40) -1.5 (-00:0) 3.6 6.39 (02:10) 3.61 (02:10) -- -- -- -- --
29-11-2018 13.5 (13:00) 1.7 (00:00) 7.6 14.44 (13:10) 9.44 (13:20) -- -- -- -- --
28-11-2018 13.9 (15:40) -3.4 (-00:0) 5.2 7.5 (17:50) 5 (17:20) -- -- -- -- --
27-11-2018 12 (15:40) -0.6 (-00:0) 5.7 5.28 (08:10) 3.61 (08:00) -- -- -- -- --
26-11-2018 8.8 (00:20) 1.3 (23:59) 5.1 12.22 (05:20) 5.56 (11:30) -- -- -- -- --
25-11-2018 11.7 (13:10) 7 (00:00) 9.3 13.33 (21:20) 8.89 (02:40) -- -- -- -- --
24-11-2018 8.5 (15:10) 1.3 (00:00) 4.9 11.11 (15:30) 7.78 (21:00) -- -- -- -- --
23-11-2018 8.1 (13:00) 0.7 (00:00) 4.4 8.61 (01:50) 5.83 (14:50) -- -- -- -- --
22-11-2018 7.5 (12:30) 4.7 (00:00) 6.1 9.72 (11:20) 6.11 (11:20) -- -- -- -- --
21-11-2018 6.7 (14:20) 4.7 (00:00) 5.7 10.83 (13:20) 6.67 (16:00) -- -- -- -- --
20-11-2018 9.2 (11:40) 5.7 (00:00) 7.4 11.67 (15:20) 6.94 (06:30) -- -- -- -- --
19-11-2018 10.3 (13:20) 6.2 (00:00) 8.3 5.56 (09:30) 2.78 (09:40) -- -- -- -- --
18-11-2018 11.7 (13:30) 7.3 (00:00) 9.5 9.72 (03:50) 6.11 (03:50) -- -- -- -- --
17-11-2018 15.1 (15:40) 3.2 (00:00) 9.2 9.17 (11:20) 5.83 (11:20) -- -- -- -- --
16-11-2018 12.8 (13:20) 4.5 (00:00) 8.7 6.67 (06:00) 3.61 (07:40) -- -- -- -- --
15-11-2018 16.4 (13:30) 7.1 (00:00) 11.7 7.22 (16:00) 4.17 (16:00) -- -- -- -- --
14-11-2018 15.8 (16:30) 4.6 (00:00) 10.2 6.67 (13:30) 4.17 (13:30) -- -- -- -- --
13-11-2018 14.5 (15:00) 5.8 (00:00) 10.2 5.83 (15:40) 3.61 (16:40) -- -- -- -- --
12-11-2018 10.3 (13:50) 7.2 (00:00) 8.8 8.89 (00:30) 5 (04:20) -- -- -- -- --
11-11-2018 13.7 (15:20) 6.7 (00:00) 10.2 16.67 (14:40) 11.67 (02:40) -- -- -- -- --
10-11-2018 13.2 (16:00) 7.5 (00:00) 10.3 15 (04:10) 7.5 (01:00) -- -- -- -- --

Gráficas

Temp. máximas Temp. mínimas Temp. medias Precipitaciones Rachas de viento máximas Velocidades máximas media en intervalos de 10 minutos

Datos horarios

Fecha y hora oficial Temperatura (ºC) Velocidad del viento (km/h) Dirección del viento Racha (km/h) Dirección de racha Precipitación (mm) Presión (hPa) Tendencia (hPa) Humedad (%)
2018-12-09 23:00:00 4 9 Sudoeste 15 Sudoeste 0 -- -- 86
2018-12-09 22:00:00 3.4 0 Calma 12 Sudoeste 0 -- -- 79
2018-12-09 21:00:00 5.8 9 Sudoeste 13 Sudoeste 0 -- -- 83
2018-12-09 20:00:00 7.7 0 Calma -- -- 0 -- -- 78
2018-12-09 19:00:00 10 0 Calma 3 Sudeste 0 -- -- 72
2018-12-09 18:00:00 13.9 3 Sudeste 17 Norte 0 -- -- 63
2018-12-09 17:00:00 16.5 10 Norte 17 Norte 0 -- -- 56
2018-12-09 16:00:00 17.6 6 Norte 16 Norte 0 -- -- 48
2018-12-09 15:00:00 17.4 6 Norte 17 Norte 0 -- -- 50
2018-12-09 14:00:00 16.6 6 Norte 14 Nordeste 0 -- -- 53
2018-12-09 13:00:00 15.4 5 Norte 9 Norte 0 -- -- 51
2018-12-09 12:00:00 12.4 0 Calma 5 Sur 0 -- -- 54
2018-12-09 11:00:00 7.8 3 Sudoeste 10 Este 0 -- -- 66
2018-12-09 10:00:00 4.1 5 Nordeste 12 Oeste 0 -- -- 78
2018-12-09 09:00:00 1 6 Sudoeste 21 Sudoeste 0 -- -- 86
2018-12-09 08:00:00 1.3 9 Sudoeste 15 Sudoeste 0 -- -- 86
2018-12-09 07:00:00 1.3 9 Sudoeste 16 Oeste 0 -- -- 85
2018-12-09 06:00:00 1.1 11 Sudoeste 18 Sudoeste 0 -- -- 86
2018-12-09 05:00:00 -1 3 Sudoeste 9 Oeste 0 -- -- 87
2018-12-09 04:00:00 0.1 4 Sudoeste 10 Sudoeste 0 -- -- 84
2018-12-09 03:00:00 1.1 9 Oeste 13 Sudoeste 0 -- -- 84
2018-12-09 02:00:00 -0.3 6 Sudoeste 9 Sudoeste 0 -- -- 86
2018-12-09 01:00:00 0.8 0 Calma 8 Oeste 0 -- -- 81
2018-12-09 00:00:00 2 6 Sudoeste 13 Sudoeste 0 -- -- 75
2018-12-08 23:00:00 2 6 Oeste 11 Oeste 0 -- -- 74
2018-12-08 22:00:00 2.5 6 Sudoeste 11 Sudoeste 0 -- -- 70
2018-12-08 21:00:00 3.5 6 Sudoeste 13 Sudoeste 0 -- -- 66
2018-12-08 20:00:00 5.2 5 Sudoeste 15 Sudoeste 0 -- -- 59
2018-12-08 19:00:00 7 9 Sudoeste 12 Sudoeste 0 -- -- 54
2018-12-08 18:00:00 10.6 0 Calma 8 Norte 0 -- -- 53
2018-12-08 17:00:00 13.2 4 Norte 9 Norte 0 -- -- 45
2018-12-08 16:00:00 13.4 3 Nordeste 6 Este 0 -- -- 38
2018-12-08 15:00:00 12.4 4 Nordeste 10 Sudoeste 0 -- -- 48
2018-12-08 14:00:00 10.3 9 Sudoeste 14 Sudoeste 0 -- -- 54
2018-12-08 13:00:00 8.9 2 Este 6 Este 0 -- -- 71
2018-12-08 12:00:00 4.4 4 Este 12 Este 0 -- -- 83
2018-12-08 11:00:00 0.7 6 Nordeste 18 Nordeste 0 -- -- 96
2018-12-08 10:00:00 -1.1 0 Calma 12 Sudoeste 0 -- -- 93
2018-12-08 09:00:00 -1.7 6 Sudoeste 10 Sudoeste 0 -- -- 93
2018-12-08 08:00:00 -1.8 0 Calma 6 Este 0 -- -- 93
2018-12-08 07:00:00 -1.1 3 Oeste 10 Sudoeste 0 -- -- 94
2018-12-08 06:00:00 -1.2 3 Sudoeste 9 Sudoeste 0 -- -- 93
2018-12-08 05:00:00 -0.5 2 Sur 12 Oeste 0 -- -- 93
2018-12-08 04:00:00 0.5 6 Sudoeste 10 Sudoeste 0 -- -- 94
2018-12-08 03:00:00 1.1 3 Sudoeste 6 Oeste 0 -- -- 90
2018-12-08 02:00:00 2.5 4 Oeste 9 Sudoeste 0 -- -- 92
2018-12-08 01:00:00 3.2 3 Nordeste 6 Este 0 -- -- 91
2018-12-08 00:00:00 4.3 4 Nordeste 9 Este 0 -- -- 90
2018-12-07 23:00:00 6.3 3 Nordeste 6 Nordeste 0 -- -- 82
2018-12-07 22:00:00 8.5 0 Calma 6 Este 0 -- -- 80
2018-12-07 21:00:00 9.3 4 Nordeste 13 Nordeste 0 -- -- 78
2018-12-07 20:00:00 10.6 0 Calma 13 Norte 0 -- -- 69
2018-12-07 19:00:00 11.8 4 Nordeste 13 Nordeste 0 -- -- 63
2018-12-07 18:00:00 12.7 5 Nordeste 12 Nordeste 0 -- -- 56
2018-12-07 17:00:00 14.2 5 Nordeste 14 Nordeste 0 -- -- 50
2018-12-07 16:00:00 16.8 5 Noroeste 14 Norte 0 -- -- 34
2018-12-07 15:00:00 17.2 6 Norte 15 Nordeste 0 -- -- 38
2018-12-07 14:00:00 17.1 5 Este 9 Nordeste 0 -- -- 37
2018-12-07 13:00:00 15 4 Este 10 Este 0 -- -- 48
2018-12-07 12:00:00 11.1 0 Calma 13 Oeste 0 -- -- 48
2018-12-07 11:00:00 5.3 8 Sudoeste 12 Oeste 0 -- -- 61
2018-12-07 10:00:00 -0.4 4 Norte 14 Este 0 -- -- 77
2018-12-07 09:00:00 -2.8 9 Sudoeste 13 Sudoeste 0 -- -- 82
2018-12-07 08:00:00 -3.2 5 Sudoeste 9 Sudoeste 0 -- -- 83
2018-12-07 07:00:00 -3 6 Sudoeste 13 Sudoeste 0 -- -- 82
2018-12-07 06:00:00 -3.5 2 Sur 13 Sudoeste 0 -- -- 84
2018-12-07 05:00:00 -2.8 9 Sudoeste 12 Sudoeste 0 -- -- 86
2018-12-07 04:00:00 -2.5 6 Sudoeste 12 Sudoeste 0 -- -- 83
2018-12-07 03:00:00 -2.4 8 Sudoeste 10 Sudoeste 0 -- -- 83
2018-12-07 02:00:00 -1.9 5 Sudoeste 10 Sudoeste 0 -- -- 86
2018-12-07 01:00:00 -1.4 7 Sudoeste 12 Sudoeste 0 -- -- 85
2018-12-07 00:00:00 0 8 Sudoeste 12 Sudoeste 0 -- -- 76
2018-12-06 23:00:00 -0.4 5 Sudoeste 9 Oeste 0 -- -- 85
2018-12-06 22:00:00 1.2 6 Oeste 8 Oeste 0 -- -- 81
2018-12-06 21:00:00 3.5 8 Oeste 12 Sudoeste 0 -- -- 73
2018-12-06 20:00:00 4.4 8 Sudoeste 12 Sudoeste 0 -- -- 76
2018-12-06 19:00:00 7.7 0 Calma 9 Sudeste 0 -- -- 72
2018-12-06 18:00:00 12.5 7 Norte 13 Norte 0 -- -- 60
2018-12-06 17:00:00 15.4 4 Nordeste 15 Norte 0 -- -- 54
2018-12-06 16:00:00 16.2 5 Norte 13 Norte 0 -- -- 46
2018-12-06 15:00:00 15.5 5 Norte 16 Nordeste 0 -- -- 61
2018-12-06 14:00:00 14.2 9 Norte 17 Norte 0 -- -- 67
2018-12-06 13:00:00 13.8 3 Nordeste 6 Norte 0 -- -- 67
2018-12-06 12:00:00 11.1 0 Calma 4 Sur 0 -- -- 73
2018-12-06 11:00:00 6.7 0 Calma 5 Sur 0 -- -- 79
2018-12-06 10:00:00 2.1 3 Sudoeste 11 Oeste 0 -- -- 91
2018-12-06 09:00:00 -1 3 Sudoeste 5 Sudoeste 0 -- -- 92
2018-12-06 08:00:00 0 2 Oeste 13 Sudoeste 0 -- -- 93
2018-12-06 07:00:00 0.4 5 Sudoeste 17 Sudoeste 0 -- -- 91
2018-12-06 06:00:00 0.8 8 Sudoeste 14 Sudoeste 0 -- -- 90
2018-12-06 05:00:00 1.4 6 Oeste 14 Oeste 0 -- -- 93
2018-12-06 04:00:00 1.4 11 Sudoeste 14 Sudoeste 0 -- -- 91
2018-12-06 03:00:00 1.9 3 Oeste 14 Sudoeste 0 -- -- 89
2018-12-06 02:00:00 1.5 9 Sudoeste 12 Sudoeste 0 -- -- 91
2018-12-06 01:00:00 2.8 0 Calma 9 Sudoeste 0 -- -- 87
2018-12-06 00:00:00 3.9 7 Oeste 10 Oeste 0 -- -- 85
2018-12-05 23:00:00 5.4 6 Sudoeste 12 Oeste 0 -- -- 83
2018-12-05 22:00:00 8.1 3 Sur 14 Nordeste 0 -- -- 76
2018-12-05 21:00:00 9.8 14 Nordeste 27 Nordeste 0 -- -- 66
2018-12-05 20:00:00 8.1 4 Sur 16 Oeste 0 -- -- 67
2018-12-05 19:00:00 10.8 7 Sudoeste 13 Oeste 0 -- -- 63
2018-12-05 18:00:00 14.5 8 Sur 15 Noroeste 0 -- -- 51
2018-12-05 17:00:00 18.2 5 Noroeste 12 Oeste 0 -- -- 41
2018-12-05 16:00:00 18.5 5 Sudoeste 10 Sudoeste 0 -- -- 45
2018-12-05 15:00:00 17.4 2 Norte 17 Norte 0 -- -- 48
2018-12-05 14:00:00 16 10 Nordeste 21 Norte 0 -- -- 53
2018-12-05 13:00:00 14.2 13 Nordeste 27 Norte 0 -- -- 57
2018-12-05 12:00:00 12.3 14 Norte 25 Norte 0 -- -- 57
2018-12-05 11:00:00 8.6 0 Calma 8 Nordeste 0 -- -- 66
2018-12-05 10:00:00 4.5 3 Este 6 Este 0 -- -- 79
2018-12-05 09:00:00 1.8 2 Noroeste 11 Este 0 -- -- 83
2018-12-05 08:00:00 1.8 5 Norte 10 Sudoeste 0 -- -- 82
2018-12-05 07:00:00 0.2 3 Oeste 9 Oeste 0 -- -- 90
2018-12-05 06:00:00 0.9 3 Oeste 6 Oeste 0 -- -- 85
2018-12-05 05:00:00 1.7 0 Calma -- -- 0 -- -- 84
2018-12-05 04:00:00 1.8 0 Calma 6 Noroeste 0 -- -- 83
2018-12-05 03:00:00 2.7 0 Calma 11 Sudoeste 0 -- -- 80
2018-12-05 02:00:00 5.6 8 Oeste 12 Oeste 0 -- -- 72
2018-12-05 01:00:00 5.8 7 Sudoeste 11 Oeste 0 -- -- 72
2018-12-05 00:00:00 6.5 8 Oeste 12 Oeste 0 -- -- 70
2018-12-04 23:00:00 5.8 3 Oeste 11 Oeste 0 -- -- 73
2018-12-04 22:00:00 7.4 8 Sudoeste 13 Sudoeste 0 -- -- 69
2018-12-04 21:00:00 8.2 6 Sudoeste 11 Oeste 0 -- -- 67
2018-12-04 20:00:00 10.3 5 Sudoeste 11 Sudoeste 0 -- -- 60
2018-12-04 19:00:00 13.2 3 Sudoeste 8 Sudoeste 0 -- -- 52
2018-12-04 18:00:00 16 0 Calma 18 Sudoeste 0 -- -- 49
2018-12-04 17:00:00 18.2 12 Sudoeste 25 Sudoeste 0 -- -- 40
2018-12-04 16:00:00 19.4 16 Sudoeste 29 Oeste 0 -- -- 38
2018-12-04 15:00:00 19.3 19 Sudoeste 32 Sudoeste 0 -- -- 37
2018-12-04 14:00:00 19 18 Sudoeste 27 Sudoeste 0 -- -- 36
2018-12-04 13:00:00 15.3 7 Norte 15 Norte 0 -- -- 57
2018-12-04 12:00:00 12.9 4 Norte 9 Norte 0 -- -- 62
2018-12-04 11:00:00 9 2 Este 5 Este 0 -- -- 77
2018-12-04 10:00:00 4.1 0 Calma 13 Sudoeste 0 -- -- 92
2018-12-04 09:00:00 1.6 7 Sudoeste 14 Sudoeste 0 -- -- 95
2018-12-04 08:00:00 -0.1 2 Sur 6 Sudoeste 0 -- -- 93
2018-12-04 07:00:00 0.3 0 Calma 6 Este 0 -- -- 93
2018-12-04 06:00:00 1.6 0 Calma 6 Oeste 0 -- -- 94
2018-12-04 05:00:00 1.8 0 Calma 14 Oeste 0 -- -- 91
2018-12-04 04:00:00 2 3 Sudoeste 11 Sudoeste 0 -- -- 93
2018-12-04 03:00:00 3.4 8 Sudoeste 14 Sudoeste 0 -- -- 93
2018-12-04 02:00:00 4.7 4 Sudoeste 18 Sudoeste 0 -- -- 91
2018-12-04 01:00:00 5 13 Sudoeste 21 Sudoeste 0 -- -- 91
2018-12-04 00:00:00 5.2 7 Sudoeste 17 Oeste 0 -- -- 91
2018-12-03 23:00:00 5.9 10 Sudoeste 19 Oeste 0 -- -- 91
2018-12-03 22:00:00 5.9 10 Sudoeste 20 Sudoeste 0 -- -- 92
2018-12-03 21:00:00 7 11 Sudoeste 17 Sudoeste 0 -- -- 90
2018-12-03 20:00:00 7.4 7 Sudoeste 9 Sudoeste 0 -- -- 89
2018-12-03 19:00:00 9.6 2 Oeste 10 Norte 0 -- -- 81
2018-12-03 18:00:00 13 7 Norte 10 Norte 0 -- -- 76
2018-12-03 17:00:00 14.8 0 Calma 11 Norte 0 -- -- 69
2018-12-03 16:00:00 15.5 8 Norte 17 Este 0 -- -- 67
2018-12-03 15:00:00 15.4 9 Nordeste 19 Norte 0 -- -- 67
2018-12-03 14:00:00 14.3 11 Nordeste 20 Nordeste 0 -- -- 63
2018-12-03 13:00:00 13.5 9 Norte 17 Norte 0 -- -- 59
2018-12-03 12:00:00 10.9 8 Nordeste 15 Nordeste 0 -- -- 63
2018-12-03 11:00:00 9.1 4 Este 18 Sudoeste 0 -- -- 68
2018-12-03 10:00:00 3.8 12 Sudoeste 18 Oeste 0 -- -- 85
2018-12-03 09:00:00 0.9 7 Sudoeste 13 Oeste 0 -- -- 90
2018-12-03 08:00:00 -0.4 6 Sudoeste 12 Oeste 0 -- -- 93
2018-12-03 07:00:00 -0.7 0 Calma 15 Sudoeste 0 -- -- 91
2018-12-03 06:00:00 -0.6 8 Sudoeste 13 Sudoeste 0 -- -- 94
2018-12-03 05:00:00 -0.5 2 Oeste 9 Sudoeste 0 -- -- 91
2018-12-03 04:00:00 -0.2 7 Sudoeste 12 Sudoeste 0 -- -- 93
2018-12-03 03:00:00 -0.2 7 Sudoeste 11 Sudoeste 0 -- -- 91
2018-12-03 02:00:00 1.1 8 Sudoeste 13 Sudoeste 0 -- -- 89
2018-12-03 01:00:00 0.7 6 Sudoeste 10 Oeste 0 -- -- 90
2018-12-03 00:00:00 1.4 3 Oeste 7 Oeste 0 -- -- 85
2018-12-02 23:00:00 1.9 3 Oeste 8 Sudoeste 0 -- -- 82
2018-12-02 22:00:00 3.2 4 Este 10 Norte 0 -- -- 77
2018-12-02 21:00:00 4.9 4 Sudoeste 15 Oeste 0 -- -- 73
2018-12-02 20:00:00 5.4 3 Sudoeste 9 Sudoeste 0 -- -- 70
2018-12-02 19:00:00 8.9 0 Calma 9 Norte 0 -- -- 57
2018-12-02 18:00:00 11.8 5 Norte 17 Norte 0 -- -- 47
2018-12-02 17:00:00 14.7 10 Nordeste 21 Este 0 -- -- 41
2018-12-02 16:00:00 14.9 8 Norte 18 Nordeste 0 -- -- 50
2018-12-02 15:00:00 15.2 5 Nordeste 22 Noroeste 0 -- -- 57
2018-12-02 14:00:00 15.1 10 Norte 21 Nordeste 0 -- -- 57
2018-12-02 13:00:00 12.7 9 Norte 16 Norte 0 -- -- 60
2018-12-02 12:00:00 10.2 4 Nordeste 10 Norte 0 -- -- 65
2018-12-02 11:00:00 6 2 Este 8 Sudoeste 0 -- -- 84
2018-12-02 10:00:00 2.3 3 Sudoeste 7 Sudeste 0 -- -- 90
2018-12-02 09:00:00 1.8 3 Sudoeste 13 Oeste 0 -- -- 86
2018-12-02 08:00:00 1.9 6 Sudoeste 16 Sudoeste 0 -- -- 89
2018-12-02 07:00:00 0.6 5 Sudoeste 12 Sudoeste 0 -- -- 91
2018-12-02 06:00:00 0.4 5 Sudoeste 8 Oeste 0 -- -- 89
2018-12-02 05:00:00 1.4 3 Sudoeste 15 Oeste 0 -- -- 85
2018-12-02 04:00:00 1.2 7 Sudoeste 14 Sudoeste 0 -- -- 86
2018-12-02 03:00:00 0.9 0 Calma 8 Este 0 -- -- 86
2018-12-02 02:00:00 2.3 9 Sudoeste 13 Sudoeste 0 -- -- 84
2018-12-02 01:00:00 1.4 8 Sudoeste 13 Sudoeste 0 -- -- 86
2018-12-02 00:00:00 1.7 6 Sudoeste 11 Oeste 0 -- -- 85
2018-12-01 23:00:00 2.6 4 Sudoeste 10 Sudoeste 0 -- -- 82
2018-12-01 22:00:00 3.5 7 Sudoeste 12 Sudoeste 0 -- -- 80
2018-12-01 21:00:00 4.8 0 Calma 8 Oeste 0 -- -- 75
2018-12-01 20:00:00 5.2 3 Oeste 12 Oeste 0 -- -- 72
2018-12-01 19:00:00 6.3 2 Sudoeste 7 Sudoeste 0 -- -- 64
2018-12-01 18:00:00 9.2 2 Nordeste 10 Noroeste 0 -- -- 55
2018-12-01 17:00:00 11.2 0 Calma 14 Nordeste 0 -- -- 44
2018-12-01 16:00:00 11 9 Nordeste 23 Norte 0 -- -- 44
2018-12-01 15:00:00 11.6 10 Norte 20 Norte 0 -- -- 49
2018-12-01 14:00:00 10.3 9 Nordeste 19 Norte 0 -- -- 51
2018-12-01 13:00:00 9.4 3 Nordeste 6 Norte 0 -- -- 54
2018-12-01 12:00:00 6.6 3 Sudeste 9 Sudoeste 0 -- -- 70
2018-12-01 11:00:00 3.2 6 Este 11 Sudoeste 0 -- -- 78
2018-12-01 10:00:00 0.3 9 Sudoeste 16 Sudoeste 0 -- -- 85
2018-12-01 09:00:00 -1.4 8 Oeste 12 Sudoeste 0 -- -- 90
2018-12-01 08:00:00 -1.8 8 Sudoeste 12 Sudoeste 0 -- -- 90
2018-12-01 07:00:00 -2.4 10 Sudoeste 15 Sudoeste 0 -- -- 94
2018-12-01 06:00:00 -2.5 0 Calma 8 Este 0 -- -- 92
2018-12-01 05:00:00 -1.5 5 Oeste 13 Sudoeste 0 -- -- 91
2018-12-01 04:00:00 -1.7 8 Sudoeste 13 Sudoeste 0 -- -- 92
2018-12-01 03:00:00 -1.8 3 Sudoeste 10 Oeste 0 -- -- 92
2018-12-01 02:00:00 -1.6 8 Sudoeste 13 Sudoeste 0 -- -- 93
2018-12-01 01:00:00 -1.7 8 Sudoeste 12 Oeste 0 -- -- 93
2018-12-01 00:00:00 -1.5 0 Calma 14 Oeste 0 -- -- 90
2018-11-30 23:00:00 -0.8 9 Sudoeste 15 Sudoeste 0 -- -- 92
2018-11-30 22:00:00 -0.7 8 Sudoeste 12 Sudoeste 0 -- -- 92
2018-11-30 21:00:00 0.1 9 Oeste 12 Oeste 0 -- -- 91
2018-11-30 20:00:00 1.7 5 Oeste 6 Oeste 0 -- -- 87
2018-11-30 19:00:00 2.7 2 Sudeste 5 Sur 0 -- -- 85
2018-11-30 18:00:00 5.5 0 Calma 5 Norte 0 -- -- 77
2018-11-30 17:00:00 6.9 4 Norte 16 Nordeste 0 -- -- 72
2018-11-30 16:00:00 8.1 5 Nordeste 16 Norte 0 -- -- 63
2018-11-30 15:00:00 8 8 Nordeste 16 Nordeste 0 -- -- 65
2018-11-30 14:00:00 7.8 5 Norte 12 Noroeste 0 -- -- 69
2018-11-30 13:00:00 7 0 Calma 6 Noroeste 0 -- -- 75
2018-11-30 12:00:00 5.6 3 Norte 7 Este 0 -- -- 81
2018-11-30 11:00:00 5.5 3 Sudeste 9 Este 0 -- -- 84
2018-11-30 10:00:00 4 5 Nordeste 8 Nordeste 0 -- -- 95
2018-11-30 09:00:00 2.9 3 Nordeste 8 Este 0 -- -- 95
2018-11-30 08:00:00 2.5 0 Calma 3 Noroeste 0 -- -- 95
2018-11-30 07:00:00 3.1 2 Noroeste 5 Este 0 -- -- 94
2018-11-30 06:00:00 4.2 3 Nordeste 11 Nordeste 0 -- -- 92
2018-11-30 05:00:00 4.7 5 Este 12 Nordeste 0 -- -- 94
2018-11-30 04:00:00 5.5 5 Nordeste 12 Nordeste 0 -- -- 95
2018-11-30 03:00:00 5.6 5 Nordeste 23 Nordeste 0 -- -- 94
2018-11-30 02:00:00 6 12 Nordeste 22 Este 0.2 -- -- 93
2018-11-30 01:00:00 5.2 4 Noroeste 18 Nordeste 0.6 -- -- 95
2018-11-30 00:00:00 4.9 6 Nordeste 13 Norte 0.8 -- -- 94
2018-11-29 23:00:00 5.1 5 Norte 12 Sudoeste 0 -- -- 92
2018-11-29 22:00:00 4.8 9 Sudoeste 21 Sudoeste 0.2 -- -- 91
2018-11-29 21:00:00 4.3 14 Sudoeste 29 Sur 0.2 -- -- 90
2018-11-29 20:00:00 4.6 10 Sudoeste 19 Sudoeste 1.6 -- -- 88
2018-11-29 19:00:00 5.5 5 Sudeste 45 Oeste 1.6 -- -- 79
2018-11-29 18:00:00 9.6 15 Noroeste 42 Oeste 0 -- -- 58
2018-11-29 17:00:00 10.9 21 Sudoeste 45 Sudoeste 0 -- -- 32
2018-11-29 16:00:00 11.3 23 Sudoeste 42 Sudoeste 0 -- -- 33
2018-11-29 15:00:00 11.9 25 Sudoeste 51 Sudoeste 0 -- -- 32
2018-11-29 14:00:00 13.3 30 Sudoeste 52 Sudoeste 0 -- -- 29
2018-11-29 13:00:00 13.5 26 Sudoeste 46 Sudoeste 0 -- -- 26
2018-11-29 12:00:00 11.5 31 Sudoeste 49 Sudoeste 0 -- -- 29
2018-11-29 11:00:00 10.6 22 Sudoeste 42 Sudoeste 0 -- -- 31
2018-11-29 10:00:00 10.6 19 Sudoeste 35 Sudoeste 0 -- -- 30
2018-11-29 09:00:00 9.3 14 Oeste 32 Oeste 0 -- -- 34
2018-11-29 08:00:00 8.7 16 Oeste 39 Oeste 0 -- -- 35
2018-11-29 07:00:00 9.3 23 Sudoeste 41 Sudoeste 0 -- -- 28
2018-11-29 06:00:00 7.5 19 Sudoeste 29 Oeste 0 -- -- 31
2018-11-29 05:00:00 3.1 5 Sur 17 Sudoeste 0 -- -- 43
2018-11-29 04:00:00 6.9 8 Sudoeste 28 Sudoeste 0 -- -- 26
2018-11-29 03:00:00 4.7 6 Sur 17 Sudoeste 0 -- -- 33
2018-11-29 02:00:00 2.2 10 Sudoeste 26 Sudoeste 0 -- -- 55
2018-11-29 01:00:00 1.8 9 Oeste 20 Oeste 0 -- -- 61
2018-11-29 00:00:00 2.4 8 Sudoeste 22 Sudoeste 0 -- -- 60
2018-11-28 23:00:00 3.1 17 Sur 26 Sur 0 -- -- 59
2018-11-28 22:00:00 2.4 4 Sur 12 Sur 0 -- -- 64
2018-11-28 21:00:00 2.9 4 Sudoeste 14 Oeste 0 -- -- 67
2018-11-28 14:00:00 -- -- -- -- -- -- -- -- --
2018-11-28 13:00:00 11.3 9 Norte 18 Norte 0 -- -- 33
2018-11-28 12:00:00 8.3 12 Norte 20 Norte 0 -- -- 45
2018-11-28 11:00:00 5 0 Calma 15 Sur 0 -- -- 55
2018-11-28 10:00:00 1.5 8 Sudoeste 13 Sudoeste 0 -- -- 61
2018-11-28 09:00:00 -3.4 0 Calma 13 Oeste 0 -- -- 78
2018-11-28 08:00:00 -2 9 Sudoeste 15 Sudoeste 0 -- -- 76
2018-11-28 07:00:00 -1.4 10 Sudoeste 16 Sudoeste 0 -- -- 75
2018-11-28 06:00:00 -1.8 4 Oeste 6 Oeste 0 -- -- 80
2018-11-28 05:00:00 -0.8 4 Sudoeste 16 Oeste 0 -- -- 78
2018-11-28 04:00:00 -0.3 12 Sudoeste 17 Sudoeste 0 -- -- 77
2018-11-28 03:00:00 -1 7 Sudoeste 10 Oeste 0 -- -- 85
2018-11-28 02:00:00 -0.9 4 Sudoeste 10 Oeste 0 -- -- 85
2018-11-28 01:00:00 0.1 7 Sudoeste 13 Sudoeste 0 -- -- 83
2018-11-28 00:00:00 0.9 9 Sudoeste 14 Sudoeste 0 -- -- 81
2018-11-27 23:00:00 1.4 10 Sudoeste 15 Sudoeste 0 -- -- 82
2018-11-27 22:00:00 1.5 9 Oeste 14 Sudoeste 0 -- -- 79
2018-11-27 21:00:00 2.5 4 Sudoeste 17 Oeste 0 -- -- 78
2018-11-27 20:00:00 3.6 9 Sudoeste 13 Sudoeste 0 -- -- 78
2018-11-27 19:00:00 5.7 6 Sudoeste 9 Oeste 0 -- -- 68
2018-11-27 18:00:00 10.2 4 Oeste 11 Oeste 0 -- -- 52
2018-11-27 17:00:00 11.6 7 Norte 12 Norte 0 -- -- 49
2018-11-27 16:00:00 11.8 7 Norte 13 Norte 0 -- -- 51
2018-11-27 15:00:00 11.5 6 Nordeste 15 Nordeste 0 -- -- 52
2018-11-27 14:00:00 10.8 4 Norte 8 Norte 0 -- -- 50
2018-11-27 13:00:00 9.8 0 Calma 6 Sudoeste 0 -- -- 56
2018-11-27 12:00:00 7.9 2 Sur 8 Sudeste 0 -- -- 61
2018-11-27 11:00:00 4.3 0 Calma 10 Sudoeste 0 -- -- 78
2018-11-27 10:00:00 1.2 7 Sudoeste 19 Sudoeste 0 -- -- 88
2018-11-27 09:00:00 0.4 12 Sudoeste 19 Sudoeste 0 -- -- 91
2018-11-27 08:00:00 0.4 13 Sudoeste 17 Sudoeste 0 -- -- 93
2018-11-27 07:00:00 0.2 12 Sudoeste 17 Sudoeste 0 -- -- 92
2018-11-27 06:00:00 -0.2 12 Sudoeste 18 Sudoeste 0 -- -- 95
2018-11-27 05:00:00 -0.3 5 Sudoeste 12 Sudoeste 0 -- -- 95
2018-11-27 04:00:00 -0.1 10 Sudoeste 15 Sudoeste 0 -- -- 95
2018-11-27 03:00:00 0.2 5 Oeste 12 Sudoeste 0 -- -- 94
2018-11-27 02:00:00 0.4 8 Oeste 12 Sudoeste 0 -- -- 93
2018-11-27 01:00:00 0.8 7 Oeste 10 Oeste 0 -- -- 94
2018-11-27 00:00:00 1.3 0 Calma -- -- 0 -- -- 92
2018-11-26 23:00:00 2.3 0 Calma -- -- 0 -- -- 90
2018-11-26 22:00:00 2.9 0 Calma 5 Este 0 -- -- 91
2018-11-26 21:00:00 2.7 0 Calma 9 Este 0 -- -- 89
2018-11-26 20:00:00 2.8 0 Calma 6 Oeste 0 -- -- 88
2018-11-26 19:00:00 4 2 Sudoeste 7 Este 0 -- -- 79
2018-11-26 18:00:00 6.9 2 Norte 16 Noroeste 0 -- -- 70
2018-11-26 17:00:00 7.8 10 Noroeste 24 Noroeste 0 -- -- 69
2018-11-26 16:00:00 7.8 12 Noroeste 26 Norte 0 -- -- 68
2018-11-26 15:00:00 7.6 12 Noroeste 29 Noroeste 0 -- -- 71
2018-11-26 14:00:00 7.7 15 Noroeste 37 Norte 0 -- -- 71
2018-11-26 13:00:00 7.7 16 Noroeste 33 Noroeste 0 -- -- 72
2018-11-26 12:00:00 7.1 14 Noroeste 37 Noroeste 0 -- -- 76
2018-11-26 11:00:00 6.2 19 Noroeste 39 Norte 0 -- -- 79
2018-11-26 10:00:00 5.4 14 Norte 31 Noroeste 0 -- -- 82
2018-11-26 09:00:00 5.2 14 Noroeste 39 Oeste 0 -- -- 82
2018-11-26 08:00:00 5.2 7 Sudeste 29 Sur 0 -- -- 78
2018-11-26 07:00:00 5 8 Norte 36 Oeste 0 -- -- 76
2018-11-26 06:00:00 4.7 6 Nordeste 44 Oeste 0 -- -- 75
2018-11-26 05:00:00 4.5 8 Nordeste 21 Noroeste 0 -- -- 74
2018-11-26 04:00:00 4.2 5 Este 34 Norte 0 -- -- 74
2018-11-26 03:00:00 4.8 10 Norte 39 Norte 0 -- -- 72
2018-11-26 02:00:00 6.3 10 Norte 41 Norte 0 -- -- 59
2018-11-26 01:00:00 8.2 8 Nordeste 23 Sudoeste 0 -- -- 63
2018-11-26 00:00:00 8.6 12 Noroeste 23 Sudoeste 0 -- -- 89
2018-11-25 23:00:00 8.4 17 Sudoeste 36 Sudoeste 0 -- -- 89
2018-11-25 22:00:00 7.9 23 Sudoeste 48 Sudoeste 1.2 -- -- 91
2018-11-25 21:00:00 7.7 18 Sudoeste 40 Sudoeste 1.2 -- -- 90
2018-11-25 20:00:00 7.6 25 Sudoeste 41 Sudoeste 0.8 -- -- 89
2018-11-25 19:00:00 8.1 13 Sudoeste 39 Oeste 0.2 -- -- 81
2018-11-25 18:00:00 9.3 23 Sudoeste 39 Sudoeste 0 -- -- 76
2018-11-25 17:00:00 10.1 17 Sudoeste 27 Sudoeste 0 -- -- 72
2018-11-25 16:00:00 10.6 11 Sudoeste 28 Sur 0 -- -- 72
2018-11-25 15:00:00 10.9 14 Sudoeste 29 Sudoeste 0 -- -- 72
2018-11-25 14:00:00 11.2 14 Sudoeste 32 Sudoeste 0 -- -- 73
2018-11-25 13:00:00 11.5 9 Sudoeste 23 Sudoeste 0 -- -- 73
2018-11-25 12:00:00 10.9 7 Sudoeste 31 Sudoeste 0 -- -- 80
2018-11-25 11:00:00 11.4 10 Oeste 31 Oeste 0 -- -- 80
2018-11-25 10:00:00 10 19 Oeste 32 Sudoeste 0 -- -- 92
2018-11-25 09:00:00 9 19 Oeste 32 Oeste 0 -- -- 93
2018-11-25 08:00:00 8.5 17 Oeste 31 Sudoeste 0 -- -- 93
2018-11-25 07:00:00 8.1 19 Oeste 34 Oeste 0.2 -- -- 94
2018-11-25 06:00:00 7.6 19 Sudoeste 34 Oeste 0 -- -- 95
2018-11-25 05:00:00 7.2 20 Oeste 32 Sudoeste 0 -- -- 94
2018-11-25 04:00:00 7 17 Sudoeste 38 Sudoeste 0 -- -- 94
2018-11-25 03:00:00 7.6 26 Sudoeste 46 Sudoeste 0 -- -- 91
2018-11-25 02:00:00 7.7 31 Sudoeste 47 Sudoeste 0.6 -- -- 89
2018-11-25 01:00:00 7.8 19 Sudoeste 41 Sudoeste 0.4 -- -- 87
2018-11-25 00:00:00 7.4 21 Sudoeste 36 Sudoeste 0 -- -- 86
2018-11-24 23:00:00 7.1 21 Sudoeste 39 Sudoeste 0 -- -- 83
2018-11-24 22:00:00 6.3 21 Sudoeste 37 Sudoeste 0 -- -- 86
2018-11-24 21:00:00 5.9 28 Sudoeste 40 Sudoeste 0 -- -- 84
2018-11-24 20:00:00 6 24 Sudoeste 39 Sudoeste 0 -- -- 81
2018-11-24 19:00:00 6.5 15 Sudoeste 38 Sudoeste 0 -- -- 73
2018-11-24 18:00:00 6.6 14 Sudoeste 33 Sudoeste 0 -- -- 70
2018-11-24 17:00:00 7.9 18 Sudoeste 31 Sudoeste 0 -- -- 65
2018-11-24 16:00:00 7.8 14 Sur 40 Sudoeste 0 -- -- 63
2018-11-24 15:00:00 8.4 21 Sudoeste 33 Sudoeste 0 -- -- 64
2018-11-24 14:00:00 6.7 18 Sudoeste 33 Sudoeste 0 -- -- 75
2018-11-24 13:00:00 6.6 20 Sudoeste 37 Sudoeste 0 -- -- 77
2018-11-24 12:00:00 6.9 22 Sudoeste 36 Sudoeste 0 -- -- 73
2018-11-24 11:00:00 6.6 13 Sur 23 Sudoeste 0 -- -- 76
2018-11-24 10:00:00 3.7 9 Sudoeste 16 Sur 0 -- -- 83
2018-11-24 09:00:00 2.1 9 Sudoeste 23 Sudoeste 0 -- -- 83
2018-11-24 08:00:00 1.9 6 Sudoeste 12 Oeste 0 -- -- 85
2018-11-24 07:00:00 2.1 6 Sudeste 11 Sudeste 0 -- -- 85
2018-11-24 06:00:00 1.9 6 Sudoeste 15 Sur 0 -- -- 87
2018-11-24 05:00:00 2 11 Sudoeste 18 Sudoeste 0 -- -- 86
2018-11-24 04:00:00 1.6 8 Sudoeste 13 Sudoeste 0 -- -- 88
2018-11-24 03:00:00 1.5 6 Sudoeste 12 Sur 0 -- -- 90
2018-11-24 02:00:00 1.7 4 Este 8 Noroeste 0 -- -- 90
2018-11-24 01:00:00 1.8 4 Este 9 Sudoeste 0 -- -- 89
2018-11-24 00:00:00 1.5 3 Sudeste 9 Oeste 0 -- -- 89
2018-11-23 23:00:00 1.3 4 Sudoeste 12 Oeste 0 -- -- 89
2018-11-23 22:00:00 1.1 3 Sudoeste 11 Sudoeste 0 -- -- 87
2018-11-23 21:00:00 1.1 8 Sudoeste 15 Sudoeste 0 -- -- 87
2018-11-23 20:00:00 2.3 7 Sudoeste 11 Sudoeste 0 -- -- 81
2018-11-23 19:00:00 3.9 2 Sudoeste 8 Sur 0 -- -- 79
2018-11-23 18:00:00 5.3 2 Sudoeste 29 Sudoeste 0 -- -- 71
2018-11-23 17:00:00 6.2 15 Sudoeste 28 Sudoeste 0 -- -- 73
2018-11-23 16:00:00 6.5 19 Sudoeste 27 Sudoeste 0 -- -- 74
2018-11-23 15:00:00 7.7 19 Oeste 30 Sudoeste 0 -- -- 67
2018-11-23 14:00:00 8.1 17 Sudoeste 30 Sudoeste 0 -- -- 70
2018-11-23 13:00:00 8.1 16 Sudoeste 29 Sudoeste 0 -- -- 64
2018-11-23 12:00:00 7.7 17 Sudoeste 24 Sudoeste 0 -- -- 71
2018-11-23 11:00:00 6.5 4 Sur 10 Este 0 -- -- 82
2018-11-23 10:00:00 3.1 4 Sudoeste 10 Sudoeste 0 -- -- 94
2018-11-23 09:00:00 1.5 6 Sudoeste 12 Oeste 0 -- -- 96
2018-11-23 08:00:00 1.2 4 Sur 9 Sudoeste 0 -- -- 95
2018-11-23 07:00:00 2.2 0 Calma -- -- 0 -- -- 94
2018-11-23 06:00:00 2.9 0 Calma 8 Sudoeste 0 -- -- 93
2018-11-23 05:00:00 3.7 4 Sudoeste 11 Este 0.2 -- -- 92
2018-11-23 04:00:00 4.1 4 Nordeste 7 Este 0.2 -- -- 90
2018-11-23 03:00:00 4.1 5 Sudoeste 21 Oeste 0.6 -- -- 91
2018-11-23 02:00:00 4.6 14 Oeste 31 Oeste 1.6 -- -- 90
2018-11-23 01:00:00 5.2 5 Nordeste 12 Norte 0.8 -- -- 93
2018-11-23 00:00:00 5.6 3 Norte 18 Sudoeste 0.2 -- -- 90
2018-11-22 23:00:00 5.9 9 Oeste 20 Sur 0.6 -- -- 89
2018-11-22 22:00:00 6.4 6 Sudoeste 15 Sudoeste 0 -- -- 84
2018-11-22 21:00:00 6.2 6 Oeste 18 Sur 0 -- -- 86
2018-11-22 20:00:00 5.8 4 Sudoeste 15 Sudoeste 0 -- -- 87
2018-11-22 19:00:00 5.7 9 Sudoeste 21 Sudoeste 0 -- -- 87
2018-11-22 18:00:00 6.2 12 Sudoeste 19 Sudoeste 0 -- -- 85
2018-11-22 17:00:00 6.5 10 Sudoeste 31 Oeste 0 -- -- 85
2018-11-22 16:00:00 6.5 15 Sudoeste 27 Sudoeste 0 -- -- 85
2018-11-22 15:00:00 6.6 15 Oeste 33 Oeste 0 -- -- 85
2018-11-22 14:00:00 6.7 19 Sudoeste 29 Sudoeste 0 -- -- 83
2018-11-22 13:00:00 6.3 17 Sudoeste 31 Oeste 0.2 -- -- 86
2018-11-22 12:00:00 6.5 15 Sudoeste 35 Sudoeste 0 -- -- 86
2018-11-22 11:00:00 5.1 15 Sudoeste 27 Sudoeste 1.2 -- -- 89
2018-11-22 10:00:00 5.5 13 Sudoeste 28 Sudoeste 0.4 -- -- 89
2018-11-22 09:00:00 5.2 10 Sudoeste 18 Sudoeste 0.4 -- -- 89
2018-11-22 08:00:00 5.1 11 Sudoeste 23 Sudoeste 0.2 -- -- 88
2018-11-22 07:00:00 5.4 9 Oeste 29 Sudoeste 0 -- -- 84
2018-11-22 06:00:00 5.2 6 Sudoeste 21 Oeste 0.2 -- -- 86
2018-11-22 05:00:00 5.2 11 Sudoeste 31 Oeste 0 -- -- 84
2018-11-22 04:00:00 5.2 17 Sudoeste 31 Oeste 0 -- -- 84
2018-11-22 03:00:00 5.6 12 Sudoeste 33 Sudoeste 0 -- -- 79
2018-11-22 02:00:00 4.8 7 Sudoeste 20 Sudeste 0 -- -- 80
2018-11-22 01:00:00 5.2 0 Calma 22 Sur 0 -- -- 82
2018-11-22 00:00:00 5.1 12 Sudoeste 28 Sudoeste 0 -- -- 84
2018-11-21 23:00:00 5.3 14 Sudoeste 35 Sudoeste 0 -- -- 82
2018-11-21 22:00:00 5 19 Sudoeste 30 Sudoeste 0 -- -- 84
2018-11-21 21:00:00 4.8 14 Sudoeste 37 Sudoeste 0 -- -- 81
2018-11-21 20:00:00 5.2 15 Sudoeste 24 Sur 0 -- -- 78
2018-11-21 19:00:00 5.3 8 Sudoeste 32 Sur 0 -- -- 84
2018-11-21 18:00:00 5.4 13 Sudoeste 30 Sudoeste 0.8 -- -- 89
2018-11-21 17:00:00 5.1 17 Sudoeste 38 Sudoeste 0.6 -- -- 86
2018-11-21 16:00:00 6.2 24 Sudoeste 35 Oeste 0.4 -- -- 83
2018-11-21 15:00:00 6 18 Oeste 32 Sudoeste 0.4 -- -- 84
2018-11-21 14:00:00 6.4 9 Sudoeste 39 Sudoeste 0 -- -- 80
2018-11-21 13:00:00 6 16 Sudoeste 35 Sudoeste 0.2 -- -- 83
2018-11-21 12:00:00 5.1 19 Sudoeste 33 Oeste 0.6 -- -- 87
2018-11-21 11:00:00 5.8 15 Sudoeste 22 Sudoeste 0 -- -- 84
2018-11-21 10:00:00 5.3 15 Sudoeste 27 Sudoeste 0.2 -- -- 86
2018-11-21 09:00:00 5.8 19 Sudoeste 31 Sudoeste 0 -- -- 82
2018-11-21 08:00:00 5.4 15 Sudoeste 29 Sudoeste 0.2 -- -- 84
2018-11-21 07:00:00 5.3 20 Sudoeste 34 Sur 0 -- -- 85
2018-11-21 06:00:00 5.2 13 Sudoeste 34 Sudoeste 0.6 -- -- 87
2018-11-21 05:00:00 6 16 Sudoeste 32 Sur 0.2 -- -- 83
2018-11-21 04:00:00 6.1 14 Sudoeste 29 Sudoeste 0 -- -- 86
2018-11-21 03:00:00 6.1 16 Sudoeste 33 Sudoeste 0 -- -- 83
2018-11-21 02:00:00 6.1 9 Oeste 32 Sudoeste 0.2 -- -- 84
2018-11-21 01:00:00 6.4 13 Sudoeste 22 Sudoeste 0 -- -- 87
2018-11-21 00:00:00 6.3 14 Sudoeste 27 Sudoeste 0.2 -- -- 88
2018-11-20 23:00:00 6.1 16 Oeste 28 Oeste 0 -- -- 90
2018-11-20 22:00:00 6 5 Sudoeste 18 Este 0 -- -- 88
2018-11-20 21:00:00 6.3 4 Sudeste 25 Sudoeste 0.2 -- -- 90
2018-11-20 20:00:00 6.4 15 Sur 26 Sur 0.2 -- -- 85
2018-11-20 19:00:00 6.3 2 Sur 24 Oeste 0.2 -- -- 89
2018-11-20 18:00:00 6.4 13 Sudoeste 24 Sudoeste 0.2 -- -- 91
2018-11-20 17:00:00 6.7 9 Sudoeste 29 Sudoeste 0 -- -- 87
2018-11-20 16:00:00 7.1 19 Sudoeste 42 Sudoeste 0 -- -- 82
2018-11-20 15:00:00 7.9 13 Oeste 33 Sudoeste 0 -- -- 80
2018-11-20 14:00:00 8.1 23 Sudoeste 38 Sudoeste 0 -- -- 79
2018-11-20 13:00:00 7.3 13 Sudoeste 28 Sudoeste 0 -- -- 84
2018-11-20 12:00:00 8.7 18 Sudoeste 33 Sudoeste 0 -- -- 68
2018-11-20 11:00:00 8.7 17 Sudoeste 28 Sudoeste 0 -- -- 78
2018-11-20 10:00:00 6.2 8 Este 15 Este 1.4 -- -- 94
2018-11-20 09:00:00 6.5 6 Nordeste 20 Oeste 1.2 -- -- 91
2018-11-20 08:00:00 6.9 6 Oeste 31 Sudoeste 0 -- -- 89
2018-11-20 07:00:00 6.9 19 Sudoeste 36 Sudoeste 0 -- -- 87
2018-11-20 06:00:00 7.1 10 Sudoeste 19 Sudoeste 0 -- -- 89
2018-11-20 05:00:00 6.8 10 Sudoeste 22 Sudoeste 0 -- -- 90
2018-11-20 04:00:00 6.9 12 Sudoeste 19 Oeste 0 -- -- 91
2018-11-20 03:00:00 6.9 5 Sudoeste 12 Oeste 0 -- -- 94
2018-11-20 02:00:00 6.7 6 Sudoeste 10 Sudoeste 0 -- -- 95
2018-11-20 01:00:00 6.8 3 Sudoeste 6 Sudoeste 0 -- -- 95
2018-11-20 00:00:00 6.8 5 Sudoeste 9 Sudoeste 0 -- -- 95
2018-11-19 23:00:00 7 0 Calma 6 Sudoeste 0 -- -- 95
2018-11-19 22:00:00 7.2 2 Sudoeste 6 Sudoeste 0 -- -- 94
2018-11-19 21:00:00 7.5 2 Oeste 6 Sudeste 0 -- -- 93
2018-11-19 20:00:00 7.5 3 Sudeste 4 Sudeste 0.2 -- -- 93
2018-11-19 19:00:00 7.6 2 Sudeste 10 Este 0 -- -- 93
2018-11-19 18:00:00 7.9 7 Este 13 Nordeste 0 -- -- 93
2018-11-19 17:00:00 8.4 4 Norte 12 Norte 0 -- -- 85
2018-11-19 16:00:00 8.9 5 Norte 18 Noroeste 0 -- -- 85
2018-11-19 15:00:00 9.6 6 Norte 14 Norte 0 -- -- 81
2018-11-19 14:00:00 10.2 6 Norte 12 Norte 0 -- -- 78
2018-11-19 13:00:00 9.9 3 Nordeste 8 Noroeste 0 -- -- 79
2018-11-19 12:00:00 8.7 0 Calma 9 Norte 0 -- -- 82
2018-11-19 11:00:00 8.3 6 Norte 10 Norte 0 -- -- 88
2018-11-19 10:00:00 7.5 5 Oeste 20 Sudoeste 0 -- -- 86
2018-11-19 09:00:00 6.6 5 Oeste 13 Sur 0 -- -- 89
2018-11-19 08:00:00 6.7 5 Oeste 16 Oeste 0 -- -- 87
2018-11-19 07:00:00 6.3 8 Oeste 13 Sudoeste 0 -- -- 95
2018-11-19 06:00:00 6.2 0 Calma 6 Sudoeste 0 -- -- 95
2018-11-19 05:00:00 6.7 3 Sudoeste 6 Sudoeste 0.8 -- -- 95
2018-11-19 04:00:00 6.7 4 Norte 7 Nordeste 0.2 -- -- 94
2018-11-19 03:00:00 6.8 5 Este 13 Oeste 0 -- -- 94
2018-11-19 02:00:00 7.1 2 Sudoeste 9 Oeste 0.2 -- -- 93
2018-11-19 01:00:00 7.3 0 Calma 10 Sudoeste 0 -- -- 92
2018-11-19 00:00:00 7.3 2 Sudoeste 9 Sudoeste 0 -- -- 90
2018-11-18 23:00:00 7.8 5 Sudoeste 12 Oeste 0 -- -- 87
2018-11-18 22:00:00 8 5 Oeste 11 Sudoeste 0 -- -- 85
2018-11-18 21:00:00 7.7 6 Sudoeste 13 Sudoeste 0 -- -- 87
2018-11-18 20:00:00 8.2 6 Sur 17 Sudeste 0 -- -- 79
2018-11-18 19:00:00 8.5 10 Sudeste 16 Sudeste 0 -- -- 79
2018-11-18 18:00:00 8.5 3 Sur 10 Sudoeste 0.2 -- -- 83
2018-11-18 17:00:00 8.9 8 Sur 13 Sur 0.4 -- -- 85
2018-11-18 16:00:00 9.4 9 Sur 17 Sur 0 -- -- 83
2018-11-18 15:00:00 10.2 8 Sur 12 Sur 0.2 -- -- 81
2018-11-18 14:00:00 11.3 8 Sur 14 Sur 0 -- -- 72
2018-11-18 13:00:00 11.3 8 Sur 17 Sudeste 0 -- -- 73
2018-11-18 12:00:00 10.9 8 Sudeste 18 Sudeste 0 -- -- 76
2018-11-18 11:00:00 10.7 12 Sudeste 21 Sudeste 0 -- -- 75
2018-11-18 10:00:00 10.2 8 Sudeste 21 Sudeste 0 -- -- 78
2018-11-18 09:00:00 9.8 11 Sur 20 Sudeste 0 -- -- 79
2018-11-18 08:00:00 9.6 11 Sudeste 21 Sur 0 -- -- 82
2018-11-18 07:00:00 10.1 7 Sudeste 27 Sur 0 -- -- 78
2018-11-18 06:00:00 10.6 12 Sudeste 25 Sudoeste 0 -- -- 75
2018-11-18 05:00:00 10.7 16 Sur 24 Sudoeste 0 -- -- 73
2018-11-18 04:00:00 11.1 22 Sur 35 Sur 0 -- -- 74
2018-11-18 03:00:00 10.7 8 Sur 14 Sur 0 -- -- 68
2018-11-18 02:00:00 10.6 9 Sur 15 Sur 0 -- -- 67
2018-11-18 01:00:00 10.5 7 Sudoeste 17 Sur 0 -- -- 72
2018-11-18 00:00:00 10.4 4 Sur 10 Sudoeste 0 -- -- 74
2018-11-17 23:00:00 11.1 5 Sudoeste 15 Sur 0 -- -- 72
2018-11-17 22:00:00 10.1 10 Sudoeste 16 Sudoeste 0 -- -- 78
2018-11-17 21:00:00 10.1 6 Sudoeste 10 Sudoeste 0 -- -- 78
2018-11-17 20:00:00 11.5 3 Sur 14 Sudoeste 0 -- -- 71
2018-11-17 19:00:00 11.4 8 Sudoeste 18 Sur 0 -- -- 70
2018-11-17 18:00:00 11.5 14 Sur 20 Sur 0 -- -- 68
2018-11-17 17:00:00 13.2 15 Sur 25 Sur 0 -- -- 60
2018-11-17 16:00:00 14.5 13 Sur 20 Sur 0 -- -- 57
2018-11-17 15:00:00 13.5 9 Sudoeste 15 Sudoeste 0 -- -- 62
2018-11-17 14:00:00 13.5 10 Sudoeste 27 Sudeste 0 -- -- 64
2018-11-17 13:00:00 12.9 14 Sur 31 Sur 0 -- -- 66
2018-11-17 12:00:00 12.5 17 Sur 33 Sudoeste 0 -- -- 70
2018-11-17 11:00:00 11.7 16 Sur 26 Sur 0 -- -- 76
2018-11-17 10:00:00 8.4 2 Sudoeste 10 Oeste 0 -- -- 93
2018-11-17 09:00:00 4.6 3 Sudoeste 9 Sudoeste 0 -- -- 96
2018-11-17 08:00:00 3.4 2 Sur 12 Este 0 -- -- 97
2018-11-17 07:00:00 4 6 Sudoeste 13 Sudoeste 0 -- -- 97
2018-11-17 06:00:00 3.4 6 Sudoeste 10 Oeste 0 -- -- 96
2018-11-17 05:00:00 3.4 0 Calma 8 Oeste 0 -- -- 95
2018-11-17 04:00:00 4.3 0 Calma 5 Oeste 0 -- -- 95
2018-11-17 03:00:00 4.8 2 Este 6 Sudeste 0 -- -- 95
2018-11-17 02:00:00 5.2 0 Calma 6 Este 0 -- -- 94
2018-11-17 01:00:00 6.6 0 Calma 5 Oeste 0 -- -- 94
2018-11-17 00:00:00 7.3 0 Calma 6 Este 0 -- -- 94
2018-11-16 23:00:00 7.6 0 Calma 6 Este 0 -- -- 94
2018-11-16 22:00:00 7.5 0 Calma 8 Este 0 -- -- 94
2018-11-16 21:00:00 7.1 5 Sudoeste 13 Oeste 0 -- -- 93
2018-11-16 20:00:00 7.5 4 Sudoeste 12 Sudoeste 0 -- -- 92
2018-11-16 19:00:00 8.5 5 Sudoeste 13 Sudoeste 0 -- -- 91
2018-11-16 18:00:00 10.6 4 Sudoeste 8 Sudoeste 0 -- -- 86
2018-11-16 17:00:00 12.2 6 Oeste 11 Sudoeste 0 -- -- 81
2018-11-16 16:00:00 10.9 3 Sur 14 Sudeste 0.2 -- -- 87
2018-11-16 15:00:00 12.2 6 Sudeste 10 Sudeste 0 -- -- 77
2018-11-16 14:00:00 12 6 Este 21 Este 0 -- -- 82
2018-11-16 13:00:00 12.5 5 Nordeste 17 Oeste 0 -- -- 74
2018-11-16 12:00:00 11.5 10 Oeste 18 Oeste 0 -- -- 78
2018-11-16 11:00:00 9.4 5 Sudoeste 12 Sudoeste 0 -- -- 87
2018-11-16 10:00:00 6.7 6 Sudoeste 21 Sudoeste 0 -- -- 91
2018-11-16 09:00:00 5.1 12 Sudoeste 18 Oeste 0 -- -- 94
2018-11-16 08:00:00 4.5 10 Sudoeste 21 Oeste -- -- -- 94
2018-11-16 07:00:00 5.7 11 Sudoeste 20 Sudoeste -- -- -- 90
2018-11-16 06:00:00 6.4 12 Oeste 24 Sudoeste -- -- -- 90
2018-11-16 05:00:00 6.3 10 Oeste 15 Oeste -- -- -- 91
2018-11-16 04:00:00 6.9 8 Sudoeste 13 Sudoeste -- -- -- 89
2018-11-16 03:00:00 8.3 6 Oeste 15 Sudoeste -- -- -- 86
2018-11-16 02:00:00 9.1 5 Sudoeste 12 Sudoeste -- -- -- 84
2018-11-16 01:00:00 9.3 6 Oeste 13 Sudoeste -- -- -- 84
2018-11-16 00:00:00 9.4 4 Oeste 8 Oeste -- -- -- 84
2018-11-15 23:00:00 9.1 6 Sudoeste 14 Oeste -- -- -- 85
2018-11-15 22:00:00 8.9 7 Sudoeste 12 Sudoeste -- -- -- 86
2018-11-15 21:00:00 9.1 8 Sudoeste 17 Sudoeste -- -- -- 84
2018-11-15 20:00:00 10 7 Oeste 12 Sudoeste -- -- -- 80
2018-11-15 19:00:00 12.1 8 Sudeste 17 Sur -- -- -- 68
2018-11-15 18:00:00 13.5 6 Sudeste 18 Sudeste -- -- -- 63
2018-11-15 17:00:00 15.4 10 Sur 23 Este -- -- -- 59
2018-11-15 16:00:00 16.2 15 Sudeste 26 Sudeste -- -- -- 55
2018-11-15 15:00:00 16 10 Sudeste 22 Sur -- -- -- 55
2018-11-15 14:00:00 15.8 11 Sudeste 24 Este -- -- -- 57
2018-11-15 13:00:00 16.2 11 Sudeste 22 Este -- -- -- 56
2018-11-15 12:00:00 15.6 10 Este 23 Este -- -- -- 60
2018-11-15 11:00:00 14.2 8 Sudeste -- -- -- -- -- 66
2018-11-15 10:00:00 10.4 6 Oeste 13 Sudoeste -- -- -- 82
2018-11-15 09:00:00 7.7 8 Oeste 15 Sudoeste -- -- -- 91
2018-11-15 08:00:00 7.2 9 Oeste 14 Oeste -- -- -- 91
2018-11-15 07:00:00 8.3 6 Sudoeste 15 Sur -- -- -- 86
2018-11-15 06:00:00 10.2 10 Sur 19 Sur -- -- -- 79
2018-11-15 05:00:00 10.5 13 Sur 19 Sudeste -- -- -- 80
2018-11-15 04:00:00 10.4 13 Sur 19 Sudeste -- -- -- 79
2018-11-15 03:00:00 11 14 Sudeste 23 Sudeste -- -- -- 77
2018-11-15 02:00:00 10.3 8 Sudoeste 15 Oeste -- -- -- 86
2018-11-15 01:00:00 9.7 7 Sudoeste 10 Sudoeste -- -- -- 94
2018-11-15 00:00:00 9.8 3 Sudeste 8 Sudoeste -- -- -- 93
2018-11-14 23:00:00 10.1 5 Sudoeste 13 Oeste -- -- -- 92
2018-11-14 22:00:00 10.5 8 Sudoeste 19 Oeste -- -- -- 89
2018-11-14 21:00:00 11.3 9 Oeste 14 Oeste -- -- -- 84
2018-11-14 20:00:00 11.7 4 Sur 12 Sudoeste -- -- -- 78
2018-11-14 19:00:00 12 3 Sudoeste 13 Sudeste -- -- -- 76
2018-11-14 18:00:00 13.3 9 Sur 15 Sur -- -- -- 69
2018-11-14 17:00:00 15 7 Sudeste 14 Sudeste -- -- -- 62
2018-11-14 16:00:00 15.6 6 Sudeste 20 Sur -- -- -- 61
2018-11-14 15:00:00 14.6 15 Sur 22 Sur -- -- -- 64
2018-11-14 14:00:00 14.2 9 Sur 24 Sur -- -- -- 65
2018-11-14 13:00:00 15.1 10 Sur 19 Sudeste -- -- -- 58
2018-11-14 12:00:00 13.8 6 Oeste 17 Sudoeste -- -- -- 66
2018-11-14 11:00:00 12.6 7 Sudoeste 12 Sudoeste -- -- -- 72
2018-11-14 10:00:00 10 9 Sudoeste 20 Sudoeste -- -- -- 83
2018-11-14 09:00:00 5.8 9 Oeste 16 Sudoeste -- -- -- 91
2018-11-14 08:00:00 4.9 9 Oeste 18 Oeste -- -- -- 90
2018-11-14 07:00:00 6.2 11 Oeste 22 Sudoeste -- -- -- 89
2018-11-14 06:00:00 6.7 12 Sudoeste 22 Sudoeste -- -- -- 89
2018-11-14 05:00:00 6.8 13 Oeste 22 Oeste -- -- -- 91
2018-11-14 04:00:00 5.6 12 Sudoeste 18 Oeste -- -- -- 92
2018-11-14 03:00:00 5.8 10 Oeste 21 Oeste -- -- -- 94
2018-11-14 02:00:00 5.1 12 Sudoeste 22 Sudoeste -- -- -- 92
2018-11-14 01:00:00 5.6 11 Sudoeste 17 Oeste -- -- -- 94
2018-11-14 00:00:00 5.9 8 Sudoeste 15 Oeste -- -- -- 94
2018-11-13 23:00:00 6.2 9 Sudoeste 16 Sudoeste -- -- -- 95
2018-11-13 22:00:00 7 8 Sudoeste 17 Sudoeste -- -- -- 95
2018-11-13 21:00:00 7.7 11 Sudoeste 17 Sudoeste -- -- -- 94
2018-11-13 20:00:00 9.5 2 Sudoeste 9 Noroeste -- -- -- 91
2018-11-13 19:00:00 10.5 6 Norte 14 Norte -- -- -- 91
2018-11-13 18:00:00 11.4 8 Norte 17 Norte -- -- -- 87
2018-11-13 17:00:00 13.7 10 Norte 19 Norte -- -- -- 79
2018-11-13 16:00:00 14.4 10 Norte 21 Norte -- -- -- 75
2018-11-13 15:00:00 14.5 9 Norte 18 Norte -- -- -- 74
2018-11-13 14:00:00 13.4 7 Norte 15 Norte -- -- -- 75
2018-11-13 13:00:00 11.6 3 Norte 9 Norte -- -- -- 85
2018-11-13 12:00:00 8.6 2 Oeste 6 Oeste -- -- -- 95
2018-11-13 11:00:00 7.3 5 Noroeste 8 Noroeste -- -- -- 97
2018-11-13 10:00:00 6.9 3 Este 7 Este -- -- -- 97
2018-11-13 09:00:00 6.6 5 Sudoeste 10 Sudoeste -- -- -- 97
2018-11-13 08:00:00 6.9 3 Sur 8 Sur -- -- -- 97
2018-11-13 07:00:00 7.3 3 Sur 5 Sudeste -- -- -- 97
2018-11-13 06:00:00 7.3 0 Calma 5 Nordeste -- -- -- 97
2018-11-13 05:00:00 7.2 3 Norte 9 Norte -- -- -- 97
2018-11-13 04:00:00 7.1 5 Norte 10 Norte -- -- -- 97
2018-11-13 03:00:00 6.9 6 Nordeste 17 Norte -- -- -- 96
2018-11-13 02:00:00 6.7 6 Sudoeste 13 Sudoeste -- -- -- 96
2018-11-13 01:00:00 7.1 8 Sudoeste 10 Sudoeste -- -- -- 95
2018-11-13 00:00:00 7.9 2 Sur 5 Sudeste -- -- -- 94
2018-11-12 23:00:00 8 0 Calma 12 Norte -- -- -- 94
2018-11-12 22:00:00 7.9 7 Norte 13 Norte -- -- -- 95
2018-11-12 21:00:00 8.1 8 Norte 16 Norte -- -- -- 94
2018-11-12 20:00:00 8.3 6 Noroeste 10 Norte -- -- -- 95
2018-11-12 19:00:00 8.6 4 Norte 8 Noroeste -- -- -- 95
2018-11-12 18:00:00 8.9 4 Norte 6 Norte -- -- -- 93
2018-11-12 17:00:00 9.2 4 Norte 7 Noroeste -- -- -- 92
2018-11-12 16:00:00 9.1 0 Calma 17 Norte -- -- -- 92
2018-11-12 15:00:00 9.8 8 Este 20 Oeste -- -- -- 88
2018-11-12 14:00:00 10.3 3 Noroeste 9 Oeste -- -- -- 87
2018-11-12 13:00:00 9.8 2 Sudeste 7 Este -- -- -- 90
2018-11-12 12:00:00 8.4 0 Calma 12 Sudeste -- -- -- 95
2018-11-12 11:00:00 7.5 0 Calma 8 Norte -- -- -- 96
2018-11-12 10:00:00 7.3 4 Norte 12 Norte -- -- -- 96
2018-11-12 09:00:00 7.3 6 Norte 10 Norte -- -- -- 96
2018-11-12 08:00:00 7.5 0 Calma 9 Nordeste -- -- -- 95
2018-11-12 07:00:00 7.9 7 Norte 10 Norte -- -- -- 94
2018-11-12 06:00:00 7.9 0 Calma 15 Oeste -- -- -- 92
2018-11-12 05:00:00 8 10 Oeste 29 Sudoeste -- -- -- 91
2018-11-12 04:00:00 8.5 15 Oeste 30 Oeste -- -- -- 88
2018-11-12 03:00:00 8.6 11 Sudoeste 29 Oeste -- -- -- 85
2018-11-12 02:00:00 8.5 16 Sudoeste 28 Sudoeste -- -- -- 86
2018-11-12 01:00:00 8.4 13 Sur 32 Sur -- -- -- 85
2018-11-12 00:00:00 7.7 6 Sur 14 Este -- -- -- 90
2018-11-11 23:00:00 7.2 6 Este 27 Norte -- -- -- 92
2018-11-11 22:00:00 7.7 14 Norte 35 Oeste -- -- -- 89
2018-11-11 21:00:00 11.8 19 Sudoeste 56 Sur -- -- -- 75
2018-11-11 20:00:00 12.2 27 Sur 47 Sur -- -- -- 75
2018-11-11 19:00:00 12.5 24 Sur 48 Sur -- -- -- 73
2018-11-11 18:00:00 12.2 18 Sur 36 Sudeste -- -- -- 79
2018-11-11 17:00:00 12.6 24 Sur 45 Sur -- -- -- 76
2018-11-11 16:00:00 12.6 24 Sur 44 Sur -- -- -- 75
2018-11-11 15:00:00 13 29 Sur 60 Sur -- -- -- 70
2018-11-11 14:00:00 12.3 26 Sur 53 Sudeste -- -- -- 78
2018-11-11 13:00:00 12.6 28 Sur 45 Sur -- -- -- 75
2018-11-11 12:00:00 11.3 14 Sudoeste 28 Sudoeste -- -- -- 86
2018-11-11 11:00:00 10.6 19 Sudoeste 35 Oeste -- -- -- 86
2018-11-11 10:00:00 10.1 24 Sudoeste 43 Sudoeste -- -- -- 83
2018-11-11 09:00:00 9.7 21 Sudoeste 31 Sudoeste -- -- -- 80
2018-11-11 08:00:00 10.1 20 Sudoeste 34 Sudoeste -- -- -- 82
2018-11-11 07:00:00 9.7 8 Sudoeste 30 Sudoeste -- -- -- 85
2018-11-11 06:00:00 10.1 14 Sudoeste 32 Sudoeste -- -- -- 87
2018-11-11 05:00:00 10 15 Sudoeste 40 Sudoeste -- -- -- 87
2018-11-11 04:00:00 10.1 16 Oeste 49 Sudoeste -- -- -- 84
2018-11-11 03:00:00 10.4 31 Sudoeste 60 Sudoeste -- -- -- 82
2018-11-11 02:00:00 11.1 22 Sudoeste 40 Sudoeste -- -- -- 88
2018-11-11 01:00:00 11.5 19 Sudoeste 50 Sudoeste -- -- -- 86
2018-11-11 00:00:00 11 15 Sudoeste 35 Sudoeste -- -- -- 88
2018-11-10 23:00:00 10.8 8 Oeste 35 Sudoeste -- -- -- 88
2018-11-10 22:00:00 11 21 Sudoeste 35 Sudoeste -- -- -- 83
2018-11-10 21:00:00 11.5 8 Noroeste 31 Sur -- -- -- 78
2018-11-10 20:00:00 11.7 19 Sudoeste 28 Sudoeste -- -- -- 79
2018-11-10 19:00:00 11.7 13 Sudoeste 28 Sudoeste -- -- -- 83
2018-11-10 18:00:00 11.9 15 Sudoeste 30 Sudoeste -- -- -- 88
2018-11-10 17:00:00 11.7 13 Sudoeste 44 Oeste -- -- -- 88
2018-11-10 16:00:00 13.2 21 Sudoeste 44 Sudoeste -- -- -- 75
2018-11-10 15:00:00 12.8 26 Sudoeste 47 Sur -- -- -- 84
2018-11-10 14:00:00 11.6 20 Sudoeste 38 Sudoeste -- -- -- 88
2018-11-10 13:00:00 11.1 23 Sudoeste 45 Sudoeste -- -- -- 90
2018-11-10 12:00:00 11.1 24 Sudoeste 46 Sudoeste -- -- -- 88
2018-11-10 11:00:00 10.7 21 Sudoeste 44 Sudoeste -- -- -- 89
2018-11-10 10:00:00 10 23 Sudoeste 50 Sudoeste -- -- -- 90
2018-11-10 09:00:00 9.4 18 Sudoeste 42 Sur -- -- -- 91
2018-11-10 08:00:00 9.1 23 Sudoeste 40 Sudoeste -- -- -- 91
2018-11-10 07:00:00 9.6 18 Sudoeste 37 Sudoeste -- -- -- 87
2018-11-10 06:00:00 9.4 20 Sudoeste 46 Sudoeste -- -- -- 87
2018-11-10 05:00:00 9.8 23 Sudoeste 54 Sudoeste -- -- -- 84
2018-11-10 04:00:00 9.5 15 Sudoeste 41 Sudoeste -- -- -- 87
2018-11-10 03:00:00 8.3 16 Oeste 31 Oeste -- -- -- 93
2018-11-10 02:00:00 8.5 24 Sudoeste 40 Sudoeste -- -- -- 89
2018-11-10 01:00:00 8.3 27 Sudoeste 42 Sudoeste -- -- -- 91
2018-11-10 00:00:00 7.5 17 Oeste 33 Sudoeste -- -- -- 92